sensor_id;sensor_type;location;lat;lon;timestamp;P1;durP1;ratioP1;P2;durP2;ratioP2
20423;SDS011;10371;49.042;8.002;2024-01-27T00:00:43;3.80;;;3.33;;
20423;SDS011;10371;49.042;8.002;2024-01-27T00:01:43;4.07;;;3.40;;
20423;SDS011;10371;49.042;8.002;2024-01-27T00:02:44;3.83;;;2.90;;
20423;SDS011;10371;49.042;8.002;2024-01-27T00:03:44;6.90;;;3.37;;
20423;SDS011;10371;49.042;8.002;2024-01-27T00:04:44;4.27;;;3.43;;
20423;SDS011;10371;49.042;8.002;2024-01-27T00:05:44;3.80;;;3.40;;
20423;SDS011;10371;49.042;8.002;2024-01-27T00:06:45;3.20;;;2.90;;
20423;SDS011;10371;49.042;8.002;2024-01-27T00:07:45;3.80;;;3.43;;
20423;SDS011;10371;49.042;8.002;2024-01-27T00:08:45;5.17;;;3.70;;
20423;SDS011;10371;49.042;8.002;2024-01-27T00:09:45;5.13;;;3.30;;
20423;SDS011;10371;49.042;8.002;2024-01-27T00:10:46;5.30;;;3.37;;
20423;SDS011;10371;49.042;8.002;2024-01-27T00:11:46;6.17;;;3.87;;
20423;SDS011;10371;49.042;8.002;2024-01-27T00:12:46;4.67;;;3.40;;
20423;SDS011;10371;49.042;8.002;2024-01-27T00:13:47;4.43;;;3.60;;
20423;SDS011;10371;49.042;8.002;2024-01-27T00:14:47;5.60;;;3.80;;
20423;SDS011;10371;49.042;8.002;2024-01-27T00:15:47;5.17;;;3.53;;
20423;SDS011;10371;49.042;8.002;2024-01-27T00:16:48;5.43;;;3.50;;
20423;SDS011;10371;49.042;8.002;2024-01-27T00:17:48;3.83;;;3.33;;
20423;SDS011;10371;49.042;8.002;2024-01-27T00:18:48;5.87;;;3.87;;
20423;SDS011;10371;49.042;8.002;2024-01-27T00:19:48;6.03;;;3.90;;
20423;SDS011;10371;49.042;8.002;2024-01-27T00:20:49;6.23;;;4.10;;
20423;SDS011;10371;49.042;8.002;2024-01-27T00:21:49;5.07;;;4.33;;
20423;SDS011;10371;49.042;8.002;2024-01-27T00:22:49;5.67;;;4.17;;
20423;SDS011;10371;49.042;8.002;2024-01-27T00:23:49;7.03;;;4.43;;
20423;SDS011;10371;49.042;8.002;2024-01-27T00:24:50;5.33;;;4.83;;
20423;SDS011;10371;49.042;8.002;2024-01-27T00:25:50;9.00;;;6.10;;
20423;SDS011;10371;49.042;8.002;2024-01-27T00:26:50;6.03;;;5.43;;
20423;SDS011;10371;49.042;8.002;2024-01-27T00:27:51;5.70;;;4.83;;
20423;SDS011;10371;49.042;8.002;2024-01-27T00:28:51;5.13;;;4.67;;
20423;SDS011;10371;49.042;8.002;2024-01-27T00:29:51;5.17;;;4.73;;
20423;SDS011;10371;49.042;8.002;2024-01-27T00:30:51;6.10;;;5.30;;
20423;SDS011;10371;49.042;8.002;2024-01-27T00:31:52;6.90;;;5.07;;
20423;SDS011;10371;49.042;8.002;2024-01-27T00:32:54;4.53;;;4.13;;
20423;SDS011;10371;49.042;8.002;2024-01-27T00:33:54;4.73;;;4.07;;
20423;SDS011;10371;49.042;8.002;2024-01-27T00:34:54;5.60;;;3.90;;
20423;SDS011;10371;49.042;8.002;2024-01-27T00:35:55;6.07;;;4.37;;
20423;SDS011;10371;49.042;8.002;2024-01-27T00:36:55;4.90;;;4.40;;
20423;SDS011;10371;49.042;8.002;2024-01-27T00:37:55;4.40;;;3.70;;
20423;SDS011;10371;49.042;8.002;2024-01-27T00:38:56;4.50;;;3.60;;
20423;SDS011;10371;49.042;8.002;2024-01-27T00:39:57;4.43;;;3.80;;
20423;SDS011;10371;49.042;8.002;2024-01-27T00:40:57;4.73;;;4.20;;
20423;SDS011;10371;49.042;8.002;2024-01-27T00:41:57;4.27;;;3.87;;
20423;SDS011;10371;49.042;8.002;2024-01-27T00:42:58;5.40;;;4.20;;
20423;SDS011;10371;49.042;8.002;2024-01-27T00:43:58;5.60;;;4.17;;
20423;SDS011;10371;49.042;8.002;2024-01-27T00:44:59;5.47;;;4.60;;
20423;SDS011;10371;49.042;8.002;2024-01-27T00:45:59;6.27;;;4.67;;
20423;SDS011;10371;49.042;8.002;2024-01-27T00:46:59;5.07;;;4.40;;
20423;SDS011;10371;49.042;8.002;2024-01-27T00:47:59;6.20;;;4.70;;
20423;SDS011;10371;49.042;8.002;2024-01-27T00:49:00;5.63;;;4.83;;
20423;SDS011;10371;49.042;8.002;2024-01-27T00:50:00;5.73;;;4.33;;
20423;SDS011;10371;49.042;8.002;2024-01-27T00:51:00;8.17;;;5.20;;
20423;SDS011;10371;49.042;8.002;2024-01-27T00:52:01;6.93;;;5.30;;
20423;SDS011;10371;49.042;8.002;2024-01-27T00:53:01;7.10;;;4.57;;
20423;SDS011;10371;49.042;8.002;2024-01-27T00:54:01;5.23;;;4.73;;
20423;SDS011;10371;49.042;8.002;2024-01-27T00:55:02;7.90;;;5.27;;
20423;SDS011;10371;49.042;8.002;2024-01-27T00:56:03;7.13;;;4.13;;
20423;SDS011;10371;49.042;8.002;2024-01-27T00:57:04;4.10;;;3.70;;
20423;SDS011;10371;49.042;8.002;2024-01-27T00:58:04;4.57;;;3.50;;
20423;SDS011;10371;49.042;8.002;2024-01-27T00:59:05;6.00;;;3.53;;
20423;SDS011;10371;49.042;8.002;2024-01-27T01:00:08;3.50;;;3.20;;
20423;SDS011;10371;49.042;8.002;2024-01-27T01:01:09;3.30;;;3.00;;
20423;SDS011;10371;49.042;8.002;2024-01-27T01:02:10;5.67;;;3.00;;
20423;SDS011;10371;49.042;8.002;2024-01-27T01:03:10;4.47;;;2.93;;
20423;SDS011;10371;49.042;8.002;2024-01-27T01:04:10;3.37;;;2.90;;
20423;SDS011;10371;49.042;8.002;2024-01-27T01:05:11;5.03;;;3.20;;
20423;SDS011;10371;49.042;8.002;2024-01-27T01:06:11;3.93;;;2.90;;
20423;SDS011;10371;49.042;8.002;2024-01-27T01:07:11;6.70;;;3.00;;
20423;SDS011;10371;49.042;8.002;2024-01-27T01:08:11;3.40;;;2.70;;
20423;SDS011;10371;49.042;8.002;2024-01-27T01:09:12;4.13;;;2.67;;
20423;SDS011;10371;49.042;8.002;2024-01-27T01:10:12;5.20;;;3.47;;
20423;SDS011;10371;49.042;8.002;2024-01-27T01:11:12;5.20;;;2.70;;
20423;SDS011;10371;49.042;8.002;2024-01-27T01:12:13;4.30;;;2.73;;
20423;SDS011;10371;49.042;8.002;2024-01-27T01:13:14;3.77;;;2.60;;
20423;SDS011;10371;49.042;8.002;2024-01-27T01:14:15;3.57;;;2.47;;
20423;SDS011;10371;49.042;8.002;2024-01-27T01:15:15;4.03;;;2.63;;
20423;SDS011;10371;49.042;8.002;2024-01-27T01:16:15;4.23;;;2.90;;
20423;SDS011;10371;49.042;8.002;2024-01-27T01:17:16;4.33;;;2.80;;
20423;SDS011;10371;49.042;8.002;2024-01-27T01:18:16;9.30;;;3.27;;
20423;SDS011;10371;49.042;8.002;2024-01-27T01:19:16;5.53;;;3.17;;
20423;SDS011;10371;49.042;8.002;2024-01-27T01:20:16;3.60;;;2.90;;
20423;SDS011;10371;49.042;8.002;2024-01-27T01:21:17;4.07;;;2.97;;
20423;SDS011;10371;49.042;8.002;2024-01-27T01:22:17;6.70;;;3.23;;
20423;SDS011;10371;49.042;8.002;2024-01-27T01:23:17;5.30;;;2.90;;
20423;SDS011;10371;49.042;8.002;2024-01-27T01:24:17;4.37;;;2.83;;
20423;SDS011;10371;49.042;8.002;2024-01-27T01:25:18;4.90;;;2.90;;
20423;SDS011;10371;49.042;8.002;2024-01-27T01:26:18;4.57;;;3.00;;
20423;SDS011;10371;49.042;8.002;2024-01-27T01:27:19;3.67;;;2.50;;
20423;SDS011;10371;49.042;8.002;2024-01-27T01:28:21;5.10;;;2.90;;
20423;SDS011;10371;49.042;8.002;2024-01-27T01:29:21;5.80;;;3.00;;
20423;SDS011;10371;49.042;8.002;2024-01-27T01:30:22;4.20;;;3.10;;
20423;SDS011;10371;49.042;8.002;2024-01-27T01:31:22;5.27;;;3.03;;
20423;SDS011;10371;49.042;8.002;2024-01-27T01:32:22;4.37;;;3.03;;
20423;SDS011;10371;49.042;8.002;2024-01-27T01:33:23;4.47;;;2.90;;
20423;SDS011;10371;49.042;8.002;2024-01-27T01:34:23;5.93;;;2.87;;
20423;SDS011;10371;49.042;8.002;2024-01-27T01:35:23;6.33;;;3.03;;
20423;SDS011;10371;49.042;8.002;2024-01-27T01:36:24;4.70;;;3.43;;
20423;SDS011;10371;49.042;8.002;2024-01-27T01:37:24;3.93;;;2.70;;
20423;SDS011;10371;49.042;8.002;2024-01-27T01:38:25;4.37;;;2.90;;
20423;SDS011;10371;49.042;8.002;2024-01-27T01:39:25;6.27;;;3.20;;
20423;SDS011;10371;49.042;8.002;2024-01-27T01:40:25;7.43;;;3.40;;
20423;SDS011;10371;49.042;8.002;2024-01-27T01:41:25;6.60;;;3.00;;
20423;SDS011;10371;49.042;8.002;2024-01-27T01:42:26;4.83;;;3.00;;
20423;SDS011;10371;49.042;8.002;2024-01-27T01:43:26;6.60;;;2.67;;
20423;SDS011;10371;49.042;8.002;2024-01-27T01:44:30;4.87;;;2.80;;
20423;SDS011;10371;49.042;8.002;2024-01-27T01:45:31;3.67;;;2.60;;
20423;SDS011;10371;49.042;8.002;2024-01-27T01:46:32;6.97;;;3.17;;
20423;SDS011;10371;49.042;8.002;2024-01-27T01:47:32;4.70;;;2.80;;
20423;SDS011;10371;49.042;8.002;2024-01-27T01:48:33;7.83;;;3.10;;
20423;SDS011;10371;49.042;8.002;2024-01-27T01:49:34;5.07;;;2.90;;
20423;SDS011;10371;49.042;8.002;2024-01-27T01:50:37;5.07;;;2.70;;
20423;SDS011;10371;49.042;8.002;2024-01-27T01:51:37;6.73;;;3.00;;
20423;SDS011;10371;49.042;8.002;2024-01-27T01:52:38;4.57;;;3.00;;
20423;SDS011;10371;49.042;8.002;2024-01-27T01:53:39;5.17;;;2.63;;
20423;SDS011;10371;49.042;8.002;2024-01-27T01:54:39;3.80;;;2.53;;
20423;SDS011;10371;49.042;8.002;2024-01-27T01:55:39;5.47;;;2.93;;
20423;SDS011;10371;49.042;8.002;2024-01-27T01:56:40;3.87;;;2.50;;
20423;SDS011;10371;49.042;8.002;2024-01-27T01:57:42;2.73;;;2.40;;
20423;SDS011;10371;49.042;8.002;2024-01-27T01:58:44;3.43;;;2.40;;
20423;SDS011;10371;49.042;8.002;2024-01-27T01:59:45;4.07;;;2.70;;
20423;SDS011;10371;49.042;8.002;2024-01-27T02:00:45;5.83;;;2.40;;
20423;SDS011;10371;49.042;8.002;2024-01-27T02:01:45;4.30;;;2.40;;
20423;SDS011;10371;49.042;8.002;2024-01-27T02:02:46;4.40;;;2.73;;
20423;SDS011;10371;49.042;8.002;2024-01-27T02:03:55;5.40;;;2.70;;
20423;SDS011;10371;49.042;8.002;2024-01-27T02:04:56;7.53;;;2.90;;
20423;SDS011;10371;49.042;8.002;2024-01-27T02:05:57;7.20;;;3.93;;
20423;SDS011;10371;49.042;8.002;2024-01-27T02:06:57;6.07;;;2.80;;
20423;SDS011;10371;49.042;8.002;2024-01-27T02:07:57;7.17;;;2.60;;
20423;SDS011;10371;49.042;8.002;2024-01-27T02:09:00;6.43;;;2.83;;
20423;SDS011;10371;49.042;8.002;2024-01-27T02:10:00;8.23;;;2.97;;
20423;SDS011;10371;49.042;8.002;2024-01-27T02:11:00;6.90;;;2.73;;
20423;SDS011;10371;49.042;8.002;2024-01-27T02:12:02;4.60;;;2.57;;
20423;SDS011;10371;49.042;8.002;2024-01-27T02:13:03;5.17;;;2.83;;
20423;SDS011;10371;49.042;8.002;2024-01-27T02:14:05;4.77;;;2.60;;
20423;SDS011;10371;49.042;8.002;2024-01-27T02:15:09;6.53;;;3.10;;
20423;SDS011;10371;49.042;8.002;2024-01-27T02:16:10;5.27;;;2.80;;
20423;SDS011;10371;49.042;8.002;2024-01-27T02:17:11;4.60;;;2.87;;
20423;SDS011;10371;49.042;8.002;2024-01-27T02:18:11;7.10;;;2.87;;
20423;SDS011;10371;49.042;8.002;2024-01-27T02:19:12;6.17;;;2.60;;
20423;SDS011;10371;49.042;8.002;2024-01-27T02:20:12;7.00;;;2.83;;
20423;SDS011;10371;49.042;8.002;2024-01-27T02:21:12;6.13;;;3.27;;
20423;SDS011;10371;49.042;8.002;2024-01-27T02:22:12;7.13;;;3.53;;
20423;SDS011;10371;49.042;8.002;2024-01-27T02:23:13;7.87;;;3.00;;
20423;SDS011;10371;49.042;8.002;2024-01-27T02:24:13;4.20;;;2.63;;
20423;SDS011;10371;49.042;8.002;2024-01-27T02:25:13;3.40;;;2.43;;
20423;SDS011;10371;49.042;8.002;2024-01-27T02:26:14;5.10;;;3.17;;
20423;SDS011;10371;49.042;8.002;2024-01-27T02:27:14;5.47;;;2.80;;
20423;SDS011;10371;49.042;8.002;2024-01-27T02:28:14;4.47;;;2.83;;
20423;SDS011;10371;49.042;8.002;2024-01-27T02:29:15;6.87;;;2.87;;
20423;SDS011;10371;49.042;8.002;2024-01-27T02:30:15;5.10;;;2.40;;
20423;SDS011;10371;49.042;8.002;2024-01-27T02:31:15;5.27;;;2.20;;
20423;SDS011;10371;49.042;8.002;2024-01-27T02:32:15;4.03;;;2.70;;
20423;SDS011;10371;49.042;8.002;2024-01-27T02:33:16;4.43;;;2.40;;
20423;SDS011;10371;49.042;8.002;2024-01-27T02:34:16;5.30;;;2.97;;
20423;SDS011;10371;49.042;8.002;2024-01-27T02:35:16;3.30;;;2.43;;
20423;SDS011;10371;49.042;8.002;2024-01-27T02:36:16;4.43;;;2.80;;
20423;SDS011;10371;49.042;8.002;2024-01-27T02:37:17;3.63;;;2.63;;
20423;SDS011;10371;49.042;8.002;2024-01-27T02:38:18;4.03;;;2.70;;
20423;SDS011;10371;49.042;8.002;2024-01-27T02:39:18;5.33;;;2.60;;
20423;SDS011;10371;49.042;8.002;2024-01-27T02:40:18;5.23;;;2.80;;
20423;SDS011;10371;49.042;8.002;2024-01-27T02:41:19;4.43;;;2.60;;
20423;SDS011;10371;49.042;8.002;2024-01-27T02:42:19;6.83;;;2.90;;
20423;SDS011;10371;49.042;8.002;2024-01-27T02:43:19;5.33;;;2.53;;
20423;SDS011;10371;49.042;8.002;2024-01-27T02:44:19;4.37;;;2.50;;
20423;SDS011;10371;49.042;8.002;2024-01-27T02:45:20;3.73;;;2.63;;
20423;SDS011;10371;49.042;8.002;2024-01-27T02:46:20;7.50;;;2.80;;
20423;SDS011;10371;49.042;8.002;2024-01-27T02:47:20;2.80;;;2.27;;
20423;SDS011;10371;49.042;8.002;2024-01-27T02:48:21;5.67;;;2.80;;
20423;SDS011;10371;49.042;8.002;2024-01-27T02:49:21;4.87;;;2.97;;
20423;SDS011;10371;49.042;8.002;2024-01-27T02:50:21;4.13;;;2.47;;
20423;SDS011;10371;49.042;8.002;2024-01-27T02:51:21;5.37;;;2.73;;
20423;SDS011;10371;49.042;8.002;2024-01-27T02:52:22;3.73;;;2.40;;
20423;SDS011;10371;49.042;8.002;2024-01-27T02:53:22;4.83;;;2.70;;
20423;SDS011;10371;49.042;8.002;2024-01-27T02:54:23;5.67;;;2.50;;
20423;SDS011;10371;49.042;8.002;2024-01-27T02:55:23;6.70;;;2.87;;
20423;SDS011;10371;49.042;8.002;2024-01-27T02:56:23;4.57;;;2.67;;
20423;SDS011;10371;49.042;8.002;2024-01-27T02:57:23;5.57;;;2.77;;
20423;SDS011;10371;49.042;8.002;2024-01-27T02:58:24;4.27;;;2.70;;
20423;SDS011;10371;49.042;8.002;2024-01-27T02:59:24;3.43;;;2.73;;
20423;SDS011;10371;49.042;8.002;2024-01-27T03:00:24;3.60;;;2.50;;
20423;SDS011;10371;49.042;8.002;2024-01-27T03:01:24;3.90;;;2.50;;
20423;SDS011;10371;49.042;8.002;2024-01-27T03:02:25;3.07;;;2.40;;
20423;SDS011;10371;49.042;8.002;2024-01-27T03:03:25;3.27;;;2.20;;
20423;SDS011;10371;49.042;8.002;2024-01-27T03:04:25;4.37;;;2.57;;
20423;SDS011;10371;49.042;8.002;2024-01-27T03:05:25;5.90;;;3.13;;
20423;SDS011;10371;49.042;8.002;2024-01-27T03:06:26;3.73;;;2.30;;
20423;SDS011;10371;49.042;8.002;2024-01-27T03:07:26;5.33;;;2.47;;
20423;SDS011;10371;49.042;8.002;2024-01-27T03:08:26;5.30;;;2.47;;
20423;SDS011;10371;49.042;8.002;2024-01-27T03:09:27;5.23;;;3.00;;
20423;SDS011;10371;49.042;8.002;2024-01-27T03:10:27;5.33;;;2.90;;
20423;SDS011;10371;49.042;8.002;2024-01-27T03:11:27;4.67;;;2.63;;
20423;SDS011;10371;49.042;8.002;2024-01-27T03:12:27;4.50;;;2.73;;
20423;SDS011;10371;49.042;8.002;2024-01-27T03:13:28;5.13;;;2.80;;
20423;SDS011;10371;49.042;8.002;2024-01-27T03:14:28;5.13;;;2.50;;
20423;SDS011;10371;49.042;8.002;2024-01-27T03:15:29;5.13;;;2.80;;
20423;SDS011;10371;49.042;8.002;2024-01-27T03:16:29;4.43;;;2.57;;
20423;SDS011;10371;49.042;8.002;2024-01-27T03:17:29;3.43;;;2.53;;
20423;SDS011;10371;49.042;8.002;2024-01-27T03:18:29;4.50;;;2.63;;
20423;SDS011;10371;49.042;8.002;2024-01-27T03:19:30;4.17;;;2.67;;
20423;SDS011;10371;49.042;8.002;2024-01-27T03:20:31;4.67;;;2.50;;
20423;SDS011;10371;49.042;8.002;2024-01-27T03:21:31;4.53;;;2.67;;
20423;SDS011;10371;49.042;8.002;2024-01-27T03:22:31;4.30;;;2.60;;
20423;SDS011;10371;49.042;8.002;2024-01-27T03:23:32;2.60;;;2.17;;
20423;SDS011;10371;49.042;8.002;2024-01-27T03:24:32;5.10;;;2.90;;
20423;SDS011;10371;49.042;8.002;2024-01-27T03:25:32;3.70;;;2.70;;
20423;SDS011;10371;49.042;8.002;2024-01-27T03:26:33;5.77;;;2.83;;
20423;SDS011;10371;49.042;8.002;2024-01-27T03:27:33;6.73;;;2.80;;
20423;SDS011;10371;49.042;8.002;2024-01-27T03:28:33;5.53;;;2.90;;
20423;SDS011;10371;49.042;8.002;2024-01-27T03:29:34;4.23;;;2.80;;
20423;SDS011;10371;49.042;8.002;2024-01-27T03:30:34;5.87;;;3.67;;
20423;SDS011;10371;49.042;8.002;2024-01-27T03:31:34;5.23;;;4.40;;
20423;SDS011;10371;49.042;8.002;2024-01-27T03:32:35;7.47;;;4.97;;
20423;SDS011;10371;49.042;8.002;2024-01-27T03:33:35;8.43;;;5.33;;
20423;SDS011;10371;49.042;8.002;2024-01-27T03:34:35;6.00;;;5.07;;
20423;SDS011;10371;49.042;8.002;2024-01-27T03:35:36;7.17;;;4.87;;
20423;SDS011;10371;49.042;8.002;2024-01-27T03:36:36;5.27;;;4.40;;
20423;SDS011;10371;49.042;8.002;2024-01-27T03:37:36;4.73;;;4.10;;
20423;SDS011;10371;49.042;8.002;2024-01-27T03:38:37;5.10;;;3.90;;
20423;SDS011;10371;49.042;8.002;2024-01-27T03:39:41;6.10;;;3.80;;
20423;SDS011;10371;49.042;8.002;2024-01-27T03:40:42;4.90;;;3.70;;
20423;SDS011;10371;49.042;8.002;2024-01-27T03:41:42;3.53;;;3.23;;
20423;SDS011;10371;49.042;8.002;2024-01-27T03:42:42;5.50;;;3.60;;
20423;SDS011;10371;49.042;8.002;2024-01-27T03:43:42;8.10;;;3.23;;
20423;SDS011;10371;49.042;8.002;2024-01-27T03:44:43;5.20;;;2.60;;
20423;SDS011;10371;49.042;8.002;2024-01-27T03:45:43;3.83;;;2.80;;
20423;SDS011;10371;49.042;8.002;2024-01-27T03:46:43;5.40;;;2.80;;
20423;SDS011;10371;49.042;8.002;2024-01-27T03:47:44;4.60;;;2.60;;
20423;SDS011;10371;49.042;8.002;2024-01-27T03:48:44;3.10;;;2.77;;
20423;SDS011;10371;49.042;8.002;2024-01-27T03:49:44;3.60;;;2.50;;
20423;SDS011;10371;49.042;8.002;2024-01-27T03:50:45;3.63;;;2.57;;
20423;SDS011;10371;49.042;8.002;2024-01-27T03:51:45;6.03;;;2.60;;
20423;SDS011;10371;49.042;8.002;2024-01-27T03:52:45;3.27;;;2.70;;
20423;SDS011;10371;49.042;8.002;2024-01-27T03:53:45;7.30;;;2.80;;
20423;SDS011;10371;49.042;8.002;2024-01-27T03:54:46;5.47;;;3.30;;
20423;SDS011;10371;49.042;8.002;2024-01-27T03:55:46;7.60;;;3.50;;
20423;SDS011;10371;49.042;8.002;2024-01-27T03:56:46;7.03;;;3.50;;
20423;SDS011;10371;49.042;8.002;2024-01-27T03:57:47;8.07;;;3.40;;
20423;SDS011;10371;49.042;8.002;2024-01-27T03:58:47;7.80;;;3.50;;
20423;SDS011;10371;49.042;8.002;2024-01-27T03:59:48;4.67;;;3.00;;
20423;SDS011;10371;49.042;8.002;2024-01-27T04:00:48;5.97;;;3.07;;
20423;SDS011;10371;49.042;8.002;2024-01-27T04:01:48;5.23;;;2.83;;
20423;SDS011;10371;49.042;8.002;2024-01-27T04:02:48;4.60;;;2.90;;
20423;SDS011;10371;49.042;8.002;2024-01-27T04:03:49;4.10;;;2.97;;
20423;SDS011;10371;49.042;8.002;2024-01-27T04:04:49;3.90;;;2.67;;
20423;SDS011;10371;49.042;8.002;2024-01-27T04:05:50;6.90;;;3.03;;
20423;SDS011;10371;49.042;8.002;2024-01-27T04:06:50;4.83;;;2.90;;
20423;SDS011;10371;49.042;8.002;2024-01-27T04:07:51;5.83;;;3.00;;
20423;SDS011;10371;49.042;8.002;2024-01-27T04:08:51;4.70;;;3.37;;
20423;SDS011;10371;49.042;8.002;2024-01-27T04:09:51;4.97;;;3.33;;
20423;SDS011;10371;49.042;8.002;2024-01-27T04:10:52;6.77;;;2.60;;
20423;SDS011;10371;49.042;8.002;2024-01-27T04:11:52;5.37;;;3.10;;
20423;SDS011;10371;49.042;8.002;2024-01-27T04:12:52;7.90;;;3.27;;
20423;SDS011;10371;49.042;8.002;2024-01-27T04:13:53;3.70;;;2.40;;
20423;SDS011;10371;49.042;8.002;2024-01-27T04:14:53;6.73;;;3.17;;
20423;SDS011;10371;49.042;8.002;2024-01-27T04:15:53;4.90;;;2.60;;
20423;SDS011;10371;49.042;8.002;2024-01-27T04:16:53;3.97;;;2.80;;
20423;SDS011;10371;49.042;8.002;2024-01-27T04:17:54;4.20;;;2.73;;
20423;SDS011;10371;49.042;8.002;2024-01-27T04:18:55;6.40;;;2.90;;
20423;SDS011;10371;49.042;8.002;2024-01-27T04:19:55;7.20;;;2.90;;
20423;SDS011;10371;49.042;8.002;2024-01-27T04:20:55;4.50;;;3.10;;
20423;SDS011;10371;49.042;8.002;2024-01-27T04:21:56;5.40;;;3.40;;
20423;SDS011;10371;49.042;8.002;2024-01-27T04:22:56;4.93;;;2.60;;
20423;SDS011;10371;49.042;8.002;2024-01-27T04:23:56;5.87;;;2.90;;
20423;SDS011;10371;49.042;8.002;2024-01-27T04:24:56;6.33;;;2.53;;
20423;SDS011;10371;49.042;8.002;2024-01-27T04:25:57;4.37;;;2.80;;
20423;SDS011;10371;49.042;8.002;2024-01-27T04:26:58;6.10;;;2.83;;
20423;SDS011;10371;49.042;8.002;2024-01-27T04:27:59;4.07;;;2.83;;
20423;SDS011;10371;49.042;8.002;2024-01-27T04:28:59;6.03;;;2.87;;
20423;SDS011;10371;49.042;8.002;2024-01-27T04:30:00;3.27;;;2.60;;
20423;SDS011;10371;49.042;8.002;2024-01-27T04:31:00;4.43;;;2.47;;
20423;SDS011;10371;49.042;8.002;2024-01-27T04:32:00;5.60;;;2.60;;
20423;SDS011;10371;49.042;8.002;2024-01-27T04:33:00;5.97;;;2.57;;
20423;SDS011;10371;49.042;8.002;2024-01-27T04:34:01;4.53;;;2.30;;
20423;SDS011;10371;49.042;8.002;2024-01-27T04:35:01;5.13;;;2.90;;
20423;SDS011;10371;49.042;8.002;2024-01-27T04:36:01;6.40;;;2.80;;
20423;SDS011;10371;49.042;8.002;2024-01-27T04:37:02;5.83;;;2.90;;
20423;SDS011;10371;49.042;8.002;2024-01-27T04:38:02;4.63;;;2.30;;
20423;SDS011;10371;49.042;8.002;2024-01-27T04:39:03;3.77;;;2.43;;
20423;SDS011;10371;49.042;8.002;2024-01-27T04:40:07;4.97;;;2.63;;
20423;SDS011;10371;49.042;8.002;2024-01-27T04:41:07;4.17;;;2.40;;
20423;SDS011;10371;49.042;8.002;2024-01-27T04:42:08;3.57;;;2.40;;
20423;SDS011;10371;49.042;8.002;2024-01-27T04:43:08;5.00;;;2.63;;
20423;SDS011;10371;49.042;8.002;2024-01-27T04:44:08;5.73;;;2.83;;
20423;SDS011;10371;49.042;8.002;2024-01-27T04:45:09;4.03;;;2.60;;
20423;SDS011;10371;49.042;8.002;2024-01-27T04:46:09;5.07;;;3.07;;
20423;SDS011;10371;49.042;8.002;2024-01-27T04:47:09;4.30;;;2.70;;
20423;SDS011;10371;49.042;8.002;2024-01-27T04:48:10;7.00;;;2.90;;
20423;SDS011;10371;49.042;8.002;2024-01-27T04:49:10;4.63;;;3.10;;
20423;SDS011;10371;49.042;8.002;2024-01-27T04:50:11;4.83;;;2.70;;
20423;SDS011;10371;49.042;8.002;2024-01-27T04:51:11;3.83;;;2.93;;
20423;SDS011;10371;49.042;8.002;2024-01-27T04:52:12;5.47;;;3.20;;
20423;SDS011;10371;49.042;8.002;2024-01-27T04:53:12;4.33;;;2.97;;
20423;SDS011;10371;49.042;8.002;2024-01-27T04:54:12;3.83;;;3.13;;
20423;SDS011;10371;49.042;8.002;2024-01-27T04:55:13;4.97;;;2.83;;
20423;SDS011;10371;49.042;8.002;2024-01-27T04:56:13;4.40;;;3.20;;
20423;SDS011;10371;49.042;8.002;2024-01-27T04:57:14;3.40;;;2.53;;
20423;SDS011;10371;49.042;8.002;2024-01-27T04:58:14;5.07;;;2.60;;
20423;SDS011;10371;49.042;8.002;2024-01-27T04:59:14;5.20;;;2.70;;
20423;SDS011;10371;49.042;8.002;2024-01-27T05:00:15;5.03;;;2.60;;
20423;SDS011;10371;49.042;8.002;2024-01-27T05:01:15;4.00;;;3.27;;
20423;SDS011;10371;49.042;8.002;2024-01-27T05:02:16;4.00;;;2.83;;
20423;SDS011;10371;49.042;8.002;2024-01-27T05:03:16;5.97;;;3.07;;
20423;SDS011;10371;49.042;8.002;2024-01-27T05:04:17;4.10;;;2.60;;
20423;SDS011;10371;49.042;8.002;2024-01-27T05:05:17;4.10;;;2.77;;
20423;SDS011;10371;49.042;8.002;2024-01-27T05:06:18;5.53;;;3.70;;
20423;SDS011;10371;49.042;8.002;2024-01-27T05:07:18;4.67;;;3.47;;
20423;SDS011;10371;49.042;8.002;2024-01-27T05:08:18;7.53;;;4.00;;
20423;SDS011;10371;49.042;8.002;2024-01-27T05:09:19;4.60;;;3.70;;
20423;SDS011;10371;49.042;8.002;2024-01-27T05:10:20;5.90;;;4.07;;
20423;SDS011;10371;49.042;8.002;2024-01-27T05:11:25;4.47;;;3.60;;
20423;SDS011;10371;49.042;8.002;2024-01-27T05:12:29;6.60;;;3.90;;
20423;SDS011;10371;49.042;8.002;2024-01-27T05:13:29;6.27;;;4.40;;
20423;SDS011;10371;49.042;8.002;2024-01-27T05:14:30;4.57;;;3.60;;
20423;SDS011;10371;49.042;8.002;2024-01-27T05:15:30;3.80;;;3.33;;
20423;SDS011;10371;49.042;8.002;2024-01-27T05:16:30;5.60;;;3.50;;
20423;SDS011;10371;49.042;8.002;2024-01-27T05:17:32;6.00;;;3.80;;
20423;SDS011;10371;49.042;8.002;2024-01-27T05:18:32;5.57;;;3.63;;
20423;SDS011;10371;49.042;8.002;2024-01-27T05:19:32;5.90;;;3.70;;
20423;SDS011;10371;49.042;8.002;2024-01-27T05:20:32;7.27;;;3.73;;
20423;SDS011;10371;49.042;8.002;2024-01-27T05:21:33;6.00;;;3.90;;
20423;SDS011;10371;49.042;8.002;2024-01-27T05:22:33;5.03;;;3.70;;
20423;SDS011;10371;49.042;8.002;2024-01-27T05:23:33;4.77;;;3.67;;
20423;SDS011;10371;49.042;8.002;2024-01-27T05:24:33;6.50;;;3.90;;
20423;SDS011;10371;49.042;8.002;2024-01-27T05:25:34;6.90;;;4.00;;
20423;SDS011;10371;49.042;8.002;2024-01-27T05:26:34;6.07;;;3.90;;
20423;SDS011;10371;49.042;8.002;2024-01-27T05:27:34;6.70;;;4.40;;
20423;SDS011;10371;49.042;8.002;2024-01-27T05:28:37;7.07;;;3.80;;
20423;SDS011;10371;49.042;8.002;2024-01-27T05:29:38;8.07;;;4.00;;
20423;SDS011;10371;49.042;8.002;2024-01-27T05:30:38;8.60;;;5.90;;
20423;SDS011;10371;49.042;8.002;2024-01-27T05:31:38;9.83;;;5.67;;
20423;SDS011;10371;49.042;8.002;2024-01-27T05:32:39;7.47;;;5.87;;
20423;SDS011;10371;49.042;8.002;2024-01-27T05:33:39;6.87;;;4.70;;
20423;SDS011;10371;49.042;8.002;2024-01-27T05:34:40;7.47;;;4.43;;
20423;SDS011;10371;49.042;8.002;2024-01-27T05:35:40;7.57;;;4.00;;
20423;SDS011;10371;49.042;8.002;2024-01-27T05:36:40;5.47;;;3.87;;
20423;SDS011;10371;49.042;8.002;2024-01-27T05:37:41;4.83;;;3.80;;
20423;SDS011;10371;49.042;8.002;2024-01-27T05:38:41;7.00;;;3.93;;
20423;SDS011;10371;49.042;8.002;2024-01-27T05:39:41;7.33;;;4.40;;
20423;SDS011;10371;49.042;8.002;2024-01-27T05:40:42;5.33;;;4.20;;
20423;SDS011;10371;49.042;8.002;2024-01-27T05:41:42;6.80;;;4.23;;
20423;SDS011;10371;49.042;8.002;2024-01-27T05:42:42;4.90;;;4.03;;
20423;SDS011;10371;49.042;8.002;2024-01-27T05:43:45;7.23;;;4.43;;
20423;SDS011;10371;49.042;8.002;2024-01-27T05:44:45;5.47;;;3.93;;
20423;SDS011;10371;49.042;8.002;2024-01-27T05:45:46;4.93;;;3.80;;
20423;SDS011;10371;49.042;8.002;2024-01-27T05:46:46;5.13;;;3.63;;
20423;SDS011;10371;49.042;8.002;2024-01-27T05:47:47;4.80;;;3.83;;
20423;SDS011;10371;49.042;8.002;2024-01-27T05:48:47;5.83;;;3.40;;
20423;SDS011;10371;49.042;8.002;2024-01-27T05:49:47;6.23;;;3.70;;
20423;SDS011;10371;49.042;8.002;2024-01-27T05:50:57;4.90;;;3.47;;
20423;SDS011;10371;49.042;8.002;2024-01-27T05:51:58;5.60;;;3.37;;
20423;SDS011;10371;49.042;8.002;2024-01-27T05:52:59;5.83;;;3.70;;
20423;SDS011;10371;49.042;8.002;2024-01-27T05:53:59;5.47;;;3.67;;
20423;SDS011;10371;49.042;8.002;2024-01-27T05:54:59;6.97;;;3.43;;
20423;SDS011;10371;49.042;8.002;2024-01-27T05:56:00;5.40;;;3.20;;
20423;SDS011;10371;49.042;8.002;2024-01-27T05:57:01;4.63;;;3.30;;
20423;SDS011;10371;49.042;8.002;2024-01-27T05:58:03;6.17;;;3.53;;
20423;SDS011;10371;49.042;8.002;2024-01-27T05:59:03;5.77;;;3.20;;
20423;SDS011;10371;49.042;8.002;2024-01-27T06:00:04;7.47;;;3.70;;
20423;SDS011;10371;49.042;8.002;2024-01-27T06:01:05;8.37;;;3.63;;
20423;SDS011;10371;49.042;8.002;2024-01-27T06:02:05;4.90;;;3.50;;
20423;SDS011;10371;49.042;8.002;2024-01-27T06:03:06;7.30;;;3.10;;
20423;SDS011;10371;49.042;8.002;2024-01-27T06:04:06;4.40;;;3.00;;
20423;SDS011;10371;49.042;8.002;2024-01-27T06:05:07;5.20;;;3.60;;